Time;durP1;ratioP1;P1;durP2;ratioP2;P2;SDS_P1;SDS_P2;PMS_P1;PMS_P2;Temp;Humidity;BMP_temperature;BMP_pressure;BME280_temperature;BME280_humidity;BME280_pressure;Samples;Min_cycle;Max_cycle;Signal;HPM_P1;HPM_P2
2021/08/09 07:46:06;;;;;;;7.25;1.45;;;;;;;;;;10532736;27;20639;-83
2021/08/09 07:51:06;;;;;;;5.10;2.45;;;;;;;;;;10528032;28;20036;-83
2021/08/09 07:56:06;;;;;;;9.53;2.90;;;;;;;;;;10533191;28;20454;-83
2021/08/09 08:01:07;;;;;;;4.07;2.58;;;;;;;;;;10520856;28;20032;-83
2021/08/09 08:06:08;;;;;;;6.50;2.70;;;;;;;;;;10500962;28;20041;-84
2021/08/09 08:11:08;;;;;;;7.00;2.73;;;;;;;;;;10505896;28;20032;-83
2021/08/09 08:16:10;;;;;;;7.20;2.50;;;;;;;;;;10522442;28;20025;-84
2021/08/09 08:21:10;;;;;;;6.50;2.80;;;;;;;;;;10532465;28;20051;-83
2021/08/09 08:26:11;;;;;;;6.83;3.20;;;;;;;;;;10532617;28;20040;-83
2021/08/09 08:31:11;;;;;;;13.07;3.53;;;;;;;;;;10530759;28;20052;-84
2021/08/09 08:36:11;;;;;;;7.93;2.70;;;;;;;;;;10530156;28;20470;-86
2021/08/09 08:41:12;;;;;;;5.93;3.20;;;;;;;;;;10519999;28;20446;-85
2021/08/09 08:46:13;;;;;;;5.55;2.83;;;;;;;;;;10527966;28;20482;-86
2021/08/09 08:51:13;;;;;;;8.05;3.30;;;;;;;;;;10531438;28;20028;-85
2021/08/09 08:56:14;;;;;;;7.22;2.50;;;;;;;;;;10512726;28;20149;-85
2021/08/09 09:01:34;;;;;;;7.30;3.17;;;;;;;;;;10490738;28;20040;-86
2021/08/09 09:06:35;;;;;;;8.52;2.97;;;;;;;;;;10464459;28;20028;-83
2021/08/09 09:11:39;;;;;;;6.77;2.87;;;;;;;;;;10481108;28;20029;-83
2021/08/09 09:16:50;;;;;;;6.43;3.00;;;;;;;;;;10490697;28;20035;-89
2021/08/09 09:21:55;;;;;;;6.03;3.40;;;;;;;;;;10465090;28;20094;-89
2021/08/09 09:27:09;;;;;;;7.18;3.13;;;;;;;;;;10475516;28;20029;-90
2021/08/09 09:32:20;;;;;;;7.53;3.25;;;;;;;;;;10463687;28;20123;-90
2021/08/09 09:37:25;;;;;;;7.95;3.30;;;;;;;;;;10467439;28;20036;-90
2021/08/09 09:42:35;;;;;;;7.00;2.83;;;;;;;;;;10485997;28;20052;-89
2021/08/09 09:47:35;;;;;;;10.57;3.30;;;;;;;;;;10494994;28;20029;-91
2021/08/09 09:52:39;;;;;;;5.40;2.57;;;;;;;;;;10464510;28;20462;-91
2021/08/09 09:57:41;;;;;;;7.72;2.80;;;;;;;;;;10451828;28;20029;-91
2021/08/09 10:02:46;;;;;;;4.65;2.78;;;;;;;;;;10447255;28;20037;-92
2021/08/09 10:07:49;;;;;;;5.10;2.90;;;;;;;;;;10443541;28;20033;-91
2021/08/09 10:12:51;;;;;;;8.55;2.92;;;;;;;;;;10454282;28;20032;-92
2021/08/09 10:17:52;;;;;;;8.85;3.22;;;;;;;;;;10477925;28;20105;-89
2021/08/09 10:23:00;;;;;;;4.32;2.35;;;;;;;;;;10474247;28;20028;-91
2021/08/09 10:28:03;;;;;;;5.47;2.38;;;;;;;;;;10465829;28;20031;-92
2021/08/09 10:33:11;;;;;;;4.13;2.40;;;;;;;;;;10481543;28;20024;-93
2021/08/09 10:38:19;;;;;;;7.07;2.58;;;;;;;;;;10464963;28;20032;-92
2021/08/09 10:43:23;;;;;;;3.70;2.30;;;;;;;;;;10437729;28;20617;-93
2021/08/09 10:48:42;;;;;;;3.67;2.50;;;;;;;;;;10436896;28;20040;-93
2021/08/09 10:54:05;;;;;;;2.60;2.08;;;;;;;;;;10473714;28;20039;-92
2021/08/09 10:59:05;;;;;;;3.88;2.28;;;;;;;;;;10484922;28;20025;-93
2021/08/09 11:04:06;;;;;;;3.33;2.00;;;;;;;;;;10455718;28;20047;-93
2021/08/09 11:09:31;;;;;;;4.25;2.30;;;;;;;;;;10486843;28;20032;-94
2021/08/09 11:15:07;;;;;;;4.13;2.10;;;;;;;;;;10462058;28;20037;-93
2021/08/09 11:20:11;;;;;;;4.30;2.55;;;;;;;;;;10497708;28;20025;-93
2021/08/09 11:25:33;;;;;;;3.58;2.10;;;;;;;;;;10463742;28;20025;-92
2021/08/09 11:30:42;;;;;;;3.78;1.95;;;;;;;;;;10447278;28;20024;-92
2021/08/09 11:35:46;;;;;;;2.50;1.98;;;;;;;;;;10447000;28;20033;-92
2021/08/09 11:40:49;;;;;;;2.70;1.83;;;;;;;;;;10435818;28;20121;-91
2021/08/09 11:45:50;;;;;;;3.45;1.83;;;;;;;;;;10473094;28;20056;-90
2021/08/09 11:50:55;;;;;;;2.17;1.98;;;;;;;;;;10461106;28;20032;-93
2021/08/09 11:56:11;;;;;;;5.70;1.83;;;;;;;;;;10466606;28;20110;-91
2021/08/09 12:01:36;;;;;;;2.22;1.85;;;;;;;;;;10448668;28;20042;-92
2021/08/09 12:06:49;;;;;;;2.92;1.98;;;;;;;;;;10461461;28;20029;-92
2021/08/09 12:11:58;;;;;;;3.42;1.77;;;;;;;;;;10464234;28;20664;-90
2021/08/09 12:17:00;;;;;;;2.55;1.65;;;;;;;;;;10457088;28;20024;-91
2021/08/09 12:22:10;;;;;;;4.82;2.00;;;;;;;;;;10479387;28;20078;-91
2021/08/09 12:27:21;;;;;;;2.58;1.77;;;;;;;;;;10492571;28;20036;-91
2021/08/09 12:32:22;;;;;;;3.60;1.67;;;;;;;;;;10468656;28;20032;-90
2021/08/09 12:37:23;;;;;;;2.80;1.80;;;;;;;;;;10511905;28;20036;-91
2021/08/09 12:42:23;;;;;;;2.13;1.55;;;;;;;;;;10485883;28;20048;-92
2021/08/09 12:47:24;;;;;;;1.70;1.60;;;;;;;;;;10482213;28;20060;-93
2021/08/09 12:52:25;;;;;;;2.13;1.77;;;;;;;;;;10485720;28;20021;-93
2021/08/09 12:57:25;;;;;;;2.30;1.60;;;;;;;;;;10450260;28;20467;-94
2021/08/09 13:02:26;;;;;;;2.53;1.83;;;;;;;;;;10471668;28;20052;-91
2021/08/09 13:07:27;;;;;;;3.53;1.90;;;;;;;;;;10481262;28;20090;-92
2021/08/09 13:12:27;;;;;;;1.73;1.63;;;;;;;;;;10469709;28;20028;-92
2021/08/09 13:17:36;;;;;;;5.50;1.73;;;;;;;;;;10461873;28;20048;-89
2021/08/09 13:22:37;;;;;;;3.75;1.92;;;;;;;;;;10470866;28;20524;-91
2021/08/09 13:27:37;;;;;;;5.00;2.13;;;;;;;;;;10454542;28;20123;-91
2021/08/09 13:32:38;;;;;;;6.63;1.92;;;;;;;;;;10475909;28;20039;-91
2021/08/09 13:37:38;;;;;;;6.03;2.03;;;;;;;;;;10480284;28;20059;-90
2021/08/09 13:42:39;;;;;;;3.57;1.63;;;;;;;;;;10462772;28;20125;-90
2021/08/09 13:47:39;;;;;;;6.83;1.90;;;;;;;;;;10497134;28;20024;-91
2021/08/09 13:52:40;;;;;;;3.65;1.88;;;;;;;;;;10463875;28;20052;-90
2021/08/09 13:57:40;;;;;;;1.63;1.53;;;;;;;;;;10500775;28;20123;-91
2021/08/09 14:02:41;;;;;;;3.30;1.65;;;;;;;;;;10461136;28;20886;-90
2021/08/09 14:07:41;;;;;;;4.50;2.05;;;;;;;;;;10501464;28;20424;-89
2021/08/09 14:12:44;;;;;;;3.30;1.97;;;;;;;;;;10499123;28;20035;-90
2021/08/09 14:17:44;;;;;;;3.90;2.15;;;;;;;;;;10482612;28;20032;-91
2021/08/09 14:22:45;;;;;;;3.38;1.92;;;;;;;;;;10464192;28;20044;-91
2021/08/09 14:27:45;;;;;;;4.90;1.80;;;;;;;;;;10455536;28;20024;-90
2021/08/09 14:32:46;;;;;;;3.13;1.90;;;;;;;;;;10480040;28;20125;-90
2021/08/09 14:37:46;;;;;;;2.83;1.80;;;;;;;;;;10498843;28;20042;-90
2021/08/09 14:42:47;;;;;;;5.88;1.80;;;;;;;;;;10503690;28;20068;-90
2021/08/09 14:47:47;;;;;;;6.28;1.98;;;;;;;;;;10474606;28;20024;-90
2021/08/09 14:52:47;;;;;;;5.20;1.90;;;;;;;;;;10481041;28;20024;-89
2021/08/09 14:57:48;;;;;;;2.58;1.60;;;;;;;;;;10462474;28;20477;-91
2021/08/09 15:02:48;;;;;;;2.83;1.80;;;;;;;;;;10470903;28;20115;-91
2021/08/09 15:07:49;;;;;;;8.48;1.85;;;;;;;;;;10475067;28;20055;-90
2021/08/09 15:12:52;;;;;;;2.77;1.60;;;;;;;;;;10479667;28;20033;-91
2021/08/09 15:17:52;;;;;;;3.53;1.80;;;;;;;;;;10481230;28;20024;-91
2021/08/09 15:22:53;;;;;;;4.57;1.90;;;;;;;;;;10480499;28;20459;-91
2021/08/09 15:27:53;;;;;;;4.35;1.80;;;;;;;;;;10450441;28;20446;-91
2021/08/09 15:32:54;;;;;;;1.90;1.70;;;;;;;;;;10463394;28;20021;-90
2021/08/09 15:37:55;;;;;;;4.25;2.00;;;;;;;;;;10462917;28;20086;-91
2021/08/09 15:42:55;;;;;;;2.17;1.43;;;;;;;;;;10463230;28;20040;-91
2021/08/09 15:47:56;;;;;;;4.55;1.85;;;;;;;;;;10460859;28;20441;-90
2021/08/09 15:52:56;;;;;;;5.63;1.70;;;;;;;;;;10480020;28;20024;-91
2021/08/09 15:57:57;;;;;;;2.20;1.60;;;;;;;;;;10479097;28;20438;-90
2021/08/09 16:02:57;;;;;;;2.60;1.67;;;;;;;;;;10448066;28;20033;-91
2021/08/09 16:07:57;;;;;;;2.00;1.73;;;;;;;;;;10481249;22;20079;-91
2021/08/09 16:12:58;;;;;;;4.40;1.70;;;;;;;;;;10504745;28;20028;-91
2021/08/09 16:17:58;;;;;;;3.13;1.73;;;;;;;;;;10505306;28;20803;-91
2021/08/09 16:22:59;;;;;;;2.72;1.70;;;;;;;;;;10487443;28;20119;-91
2021/08/09 16:28:00;;;;;;;2.53;1.60;;;;;;;;;;10487135;28;20028;-90
2021/08/09 16:33:01;;;;;;;2.03;1.50;;;;;;;;;;10487130;28;20123;-90
2021/08/09 16:38:01;;;;;;;1.85;1.52;;;;;;;;;;10483473;28;20032;-90
2021/08/09 16:43:03;;;;;;;1.42;1.33;;;;;;;;;;10503098;28;20101;-91
2021/08/09 16:48:03;;;;;;;4.75;1.83;;;;;;;;;;10496333;28;20492;-91
2021/08/09 16:53:04;;;;;;;2.65;1.42;;;;;;;;;;10467437;28;20035;-92
2021/08/09 16:58:04;;;;;;;1.50;1.40;;;;;;;;;;10474176;28;20036;-91
2021/08/09 17:03:05;;;;;;;1.50;1.40;;;;;;;;;;10501557;28;20028;-92
2021/08/09 17:08:05;;;;;;;2.60;1.52;;;;;;;;;;10501890;28;20091;-93
2021/08/09 17:13:06;;;;;;;3.08;1.63;;;;;;;;;;10485388;28;20090;-92
2021/08/09 17:18:06;;;;;;;2.87;1.53;;;;;;;;;;10472919;28;20028;-92
2021/08/09 17:23:07;;;;;;;2.30;1.70;;;;;;;;;;10501804;28;20450;-92
2021/08/09 17:28:07;;;;;;;1.83;1.60;;;;;;;;;;10472787;28;20078;-92
2021/08/09 17:33:08;;;;;;;5.25;1.23;;;;;;;;;;10492710;28;20557;-95
2021/08/09 17:38:08;;;;;;;9.02;1.73;;;;;;;;;;10485783;28;20051;-96
2021/08/09 17:43:09;;;;;;;9.33;1.87;;;;;;;;;;10463182;28;20454;-95
2021/08/09 17:48:09;;;;;;;18.08;2.08;;;;;;;;;;10488717;28;20518;-92
2021/08/09 17:53:10;;;;;;;13.48;3.30;;;;;;;;;;10478915;28;20111;-92
2021/08/09 17:58:10;;;;;;;7.97;2.17;;;;;;;;;;10477981;28;20056;-93
2021/08/09 18:03:11;;;;;;;11.50;2.08;;;;;;;;;;10500374;28;20108;-92
2021/08/09 18:08:11;;;;;;;5.50;2.10;;;;;;;;;;10483318;28;20135;-93
2021/08/09 18:13:12;;;;;;;12.20;1.80;;;;;;;;;;10482642;28;21030;-91
2021/08/09 18:18:12;;;;;;;4.03;1.90;;;;;;;;;;10499798;28;20037;-93
2021/08/09 18:23:12;;;;;;;2.38;1.80;;;;;;;;;;10500512;28;20545;-92
2021/08/09 18:28:13;;;;;;;6.90;1.70;;;;;;;;;;10493764;28;20478;-92
2021/08/09 18:33:13;;;;;;;6.73;1.63;;;;;;;;;;10485630;28;20067;-92
2021/08/09 18:38:14;;;;;;;7.90;2.10;;;;;;;;;;10482107;28;20473;-92
2021/08/09 18:43:14;;;;;;;5.10;1.80;;;;;;;;;;10482292;28;20503;-92
2021/08/09 18:48:15;;;;;;;4.03;2.13;;;;;;;;;;10467173;28;20454;-93
2021/08/09 18:53:15;;;;;;;11.75;1.92;;;;;;;;;;10476435;28;20050;-91
2021/08/09 18:58:16;;;;;;;5.25;1.60;;;;;;;;;;10497617;28;20074;-92
2021/08/09 19:03:20;;;;;;;3.38;1.90;;;;;;;;;;10497948;28;20036;-92
2021/08/09 19:08:20;;;;;;;5.70;1.80;;;;;;;;;;10506221;28;20052;-92
2021/08/09 19:13:21;;;;;;;5.43;1.50;;;;;;;;;;10484776;28;20033;-87
2021/08/09 19:18:21;;;;;;;2.37;1.60;;;;;;;;;;10497549;28;20032;-85
2021/08/09 19:23:22;;;;;;;4.97;2.20;;;;;;;;;;10498447;28;20033;-85
2021/08/09 19:28:23;;;;;;;5.97;2.50;;;;;;;;;;10496889;28;20046;-86
2021/08/09 19:33:23;;;;;;;5.45;2.55;;;;;;;;;;10496857;28;20028;-83
2021/08/09 19:38:24;;;;;;;9.95;2.55;;;;;;;;;;10498031;28;20120;-85
2021/08/09 19:43:24;;;;;;;9.83;2.70;;;;;;;;;;10498614;28;20119;-86
2021/08/09 19:48:24;;;;;;;6.90;2.58;;;;;;;;;;10497803;28;20959;-85
2021/08/09 19:53:25;;;;;;;5.53;2.30;;;;;;;;;;10497301;28;20056;-84
2021/08/09 19:58:25;;;;;;;10.20;4.25;;;;;;;;;;10497064;28;20141;-85
2021/08/09 20:03:27;;;;;;;17.80;6.20;;;;;;;;;;10497317;28;20033;-85
2021/08/09 20:08:28;;;;;;;13.82;5.38;;;;;;;;;;10495737;28;20556;-84
2021/08/09 20:13:28;;;;;;;10.02;4.20;;;;;;;;;;10496358;28;20166;-84
2021/08/09 20:18:28;;;;;;;9.83;4.80;;;;;;;;;;10497254;28;20378;-85
2021/08/09 20:23:29;;;;;;;6.37;3.90;;;;;;;;;;10495814;28;20055;-84
2021/08/09 20:28:29;;;;;;;8.57;3.30;;;;;;;;;;10494981;28;20025;-84
2021/08/09 20:33:30;;;;;;;11.13;3.03;;;;;;;;;;10496256;28;20032;-84
2021/08/09 20:38:30;;;;;;;8.80;3.83;;;;;;;;;;10496179;28;20478;-88
2021/08/09 20:43:30;;;;;;;16.93;3.43;;;;;;;;;;10496832;28;20028;-85
2021/08/09 20:48:32;;;;;;;8.80;3.22;;;;;;;;;;10495305;28;20465;-85
2021/08/09 20:53:32;;;;;;;20.67;3.38;;;;;;;;;;10502023;28;20119;-83
